Time;durP1;ratioP1;P1;durP2;ratioP2;P2;SDS_P1;SDS_P2;PMS_P1;PMS_P2;Temp;Humidity;BMP_temperature;BMP_pressure;BME280_temperature;BME280_humidity;BME280_pressure;Samples;Min_cycle;Max_cycle;Signal;HPM_P1;HPM_P2
2023/04/15 00:00:40;;;;;;;3.28;2.38;;;;;;;;;;4979585;28;20065;-80
2023/04/15 00:03:05;;;;;;;4.40;2.65;;;;;;;;;;4976892;28;20057;-81
2023/04/15 00:05:32;;;;;;;4.85;2.50;;;;;;;;;;4975761;28;20062;-83
2023/04/15 00:07:58;;;;;;;3.78;2.15;;;;;;;;;;4977295;28;20026;-81
2023/04/15 00:10:24;;;;;;;5.22;2.42;;;;;;;;;;4965304;28;20134;-81
2023/04/15 00:12:50;;;;;;;2.70;2.15;;;;;;;;;;4976239;28;20042;-80
2023/04/15 00:15:15;;;;;;;4.82;2.05;;;;;;;;;;4971556;28;20030;-79
2023/04/15 00:17:40;;;;;;;3.20;2.42;;;;;;;;;;4976823;28;20029;-81
2023/04/15 00:20:06;;;;;;;7.05;1.80;;;;;;;;;;4977006;28;20037;-80
2023/04/15 00:22:31;;;;;;;3.40;2.35;;;;;;;;;;4977782;28;20113;-80
2023/04/15 00:24:57;;;;;;;5.85;1.90;;;;;;;;;;4974762;28;20038;-80
2023/04/15 00:27:22;;;;;;;4.57;2.47;;;;;;;;;;4979592;28;20026;-80
2023/04/15 00:29:48;;;;;;;4.30;2.60;;;;;;;;;;4973244;28;20157;-81
2023/04/15 00:32:13;;;;;;;4.43;2.42;;;;;;;;;;4961821;28;20036;-80
2023/04/15 00:34:38;;;;;;;3.55;2.15;;;;;;;;;;4975506;28;20030;-79
2023/04/15 00:37:04;;;;;;;5.30;2.42;;;;;;;;;;4957949;28;20029;-81
2023/04/15 00:39:29;;;;;;;6.88;2.38;;;;;;;;;;4974770;28;20038;-80
2023/04/15 00:41:56;;;;;;;2.10;1.90;;;;;;;;;;4972274;28;20057;-80
2023/04/15 00:44:22;;;;;;;4.50;2.20;;;;;;;;;;4974469;28;20035;-80
2023/04/15 00:46:49;;;;;;;5.68;2.35;;;;;;;;;;5003377;23;20046;-79
2023/04/15 00:49:15;;;;;;;5.55;2.45;;;;;;;;;;4977275;28;20035;-80
2023/04/15 00:51:40;;;;;;;6.38;3.28;;;;;;;;;;4980935;28;20027;-80
2023/04/15 00:54:06;;;;;;;6.72;3.40;;;;;;;;;;4979093;28;20132;-79
2023/04/15 01:00:39;;;;;;;3.03;2.60;;;;;;;;;;4989670;28;20040;-79
2023/04/15 01:03:05;;;;;;;2.00;1.50;;;;;;;;;;4998835;28;20049;-79
2023/04/15 01:08:13;;;;;;;6.05;2.20;;;;;;;;;;5839902;23;20071;-79
2023/04/15 01:10:39;;;;;;;4.53;2.55;;;;;;;;;;4956581;28;21055;-79
2023/04/15 01:13:04;;;;;;;5.25;2.25;;;;;;;;;;4956380;28;20644;-79
2023/04/15 01:15:30;;;;;;;2.53;2.28;;;;;;;;;;4952607;28;20042;-78
2023/04/15 01:17:57;;;;;;;3.53;2.33;;;;;;;;;;4939895;28;20035;-80
2023/04/15 01:20:23;;;;;;;2.95;1.88;;;;;;;;;;4939334;28;20098;-79
2023/04/15 01:22:48;;;;;;;6.22;2.85;;;;;;;;;;4940736;28;20400;-81
2023/04/15 01:25:17;;;;;;;2.92;2.10;;;;;;;;;;4941733;28;20031;-82
2023/04/15 01:27:43;;;;;;;5.15;2.40;;;;;;;;;;4942627;28;20035;-79
2023/04/15 01:30:09;;;;;;;4.95;2.83;;;;;;;;;;4927707;28;20442;-80
2023/04/15 01:32:35;;;;;;;4.25;2.40;;;;;;;;;;4926527;28;20038;-78
2023/04/15 01:35:00;;;;;;;7.80;1.73;;;;;;;;;;4945272;28;20117;-80
2023/04/15 01:37:26;;;;;;;3.15;1.55;;;;;;;;;;4940693;28;20046;-80
2023/04/15 01:39:51;;;;;;;4.85;1.90;;;;;;;;;;4944869;28;20043;-81
2023/04/15 01:42:17;;;;;;;8.13;2.15;;;;;;;;;;4944084;28;20035;-80
2023/04/15 01:44:42;;;;;;;3.63;2.38;;;;;;;;;;4941969;28;20807;-80
2023/04/15 01:47:07;;;;;;;4.03;2.53;;;;;;;;;;4944720;28;20031;-81
2023/04/15 01:49:33;;;;;;;4.53;2.42;;;;;;;;;;4927156;28;20028;-79
2023/04/15 01:51:59;;;;;;;4.85;2.42;;;;;;;;;;4926852;28;20043;-81
2023/04/15 01:54:26;;;;;;;4.82;2.10;;;;;;;;;;4944284;28;20518;-80
2023/04/15 01:56:51;;;;;;;4.55;2.30;;;;;;;;;;4925830;28;20028;-80
2023/04/15 01:59:17;;;;;;;2.75;2.30;;;;;;;;;;4946930;29;20035;-80
2023/04/15 02:01:44;;;;;;;3.80;2.45;;;;;;;;;;4945183;28;20498;-81
2023/04/15 02:04:15;;;;;;;5.50;2.40;;;;;;;;;;4947360;28;20027;-79
2023/04/15 02:06:41;;;;;;;3.63;1.92;;;;;;;;;;4945677;29;20023;-80
2023/04/15 02:09:07;;;;;;;9.32;2.22;;;;;;;;;;4919173;28;20665;-80
2023/04/15 02:11:34;;;;;;;3.80;2.00;;;;;;;;;;4943812;28;20110;-79
2023/04/15 02:13:59;;;;;;;3.80;1.88;;;;;;;;;;4944531;28;20034;-80
2023/04/15 02:16:24;;;;;;;5.63;2.80;;;;;;;;;;4942139;28;20486;-80
2023/04/15 02:18:50;;;;;;;3.45;2.28;;;;;;;;;;4943666;29;20047;-79
2023/04/15 02:21:17;;;;;;;3.90;2.10;;;;;;;;;;4945376;28;20035;-80
2023/04/15 02:23:43;;;;;;;5.18;2.30;;;;;;;;;;4945060;28;20038;-80
2023/04/15 02:26:08;;;;;;;3.72;2.95;;;;;;;;;;4946637;28;20039;-80
2023/04/15 02:28:33;;;;;;;7.70;3.05;;;;;;;;;;4944232;28;20019;-80
2023/04/15 02:31:00;;;;;;;5.38;2.40;;;;;;;;;;4944589;29;20094;-81
2023/04/15 02:33:25;;;;;;;15.68;3.83;;;;;;;;;;4945048;29;20035;-79
2023/04/15 02:35:52;;;;;;;4.63;2.38;;;;;;;;;;4944368;28;20024;-80
2023/04/15 02:38:17;;;;;;;5.45;3.30;;;;;;;;;;4944313;28;20032;-80
2023/04/15 02:40:43;;;;;;;4.00;2.70;;;;;;;;;;4945864;28;20035;-80
2023/04/15 02:43:08;;;;;;;5.63;2.78;;;;;;;;;;4946697;28;20027;-81
2023/04/15 02:45:33;;;;;;;3.97;2.33;;;;;;;;;;4944323;28;20036;-79
2023/04/15 02:48:02;;;;;;;3.95;2.47;;;;;;;;;;4930095;29;20551;-79
2023/04/15 02:50:28;;;;;;;4.63;2.55;;;;;;;;;;4946132;28;20059;-80
2023/04/15 02:52:53;;;;;;;5.25;2.58;;;;;;;;;;4946297;29;20087;-80
2023/04/15 02:55:18;;;;;;;6.40;3.40;;;;;;;;;;4946718;28;20067;-80
2023/04/15 02:57:44;;;;;;;2.40;2.20;;;;;;;;;;4926585;28;20035;-81
2023/04/15 03:00:10;;;;;;;9.32;3.08;;;;;;;;;;4946527;28;20046;-81
2023/04/15 03:02:37;;;;;;;9.65;2.67;;;;;;;;;;4948910;28;20035;-79
2023/04/15 03:05:03;;;;;;;3.33;2.20;;;;;;;;;;4964510;28;20039;-79
2023/04/15 03:07:29;;;;;;;7.70;2.28;;;;;;;;;;4957396;28;21310;-80
2023/04/15 03:09:55;;;;;;;2.85;2.50;;;;;;;;;;4948870;28;20063;-80
2023/04/15 03:12:20;;;;;;;2.17;1.98;;;;;;;;;;4949284;28;20031;-80
2023/04/15 03:14:45;;;;;;;6.82;2.60;;;;;;;;;;4946664;28;20039;-81
2023/04/15 03:17:11;;;;;;;3.25;2.28;;;;;;;;;;4943891;28;20729;-80
2023/04/15 03:19:36;;;;;;;4.28;2.20;;;;;;;;;;4929387;28;20039;-81
2023/04/15 03:22:01;;;;;;;3.78;2.35;;;;;;;;;;4947718;29;20035;-81
2023/04/15 03:24:28;;;;;;;4.80;3.13;;;;;;;;;;4946555;28;20079;-81
2023/04/15 03:26:54;;;;;;;2.97;2.42;;;;;;;;;;4946286;28;20051;-81
2023/04/15 03:29:19;;;;;;;3.78;2.80;;;;;;;;;;4926884;28;20399;-81
2023/04/15 03:31:45;;;;;;;4.20;2.83;;;;;;;;;;4946274;28;20035;-80
2023/04/15 03:34:10;;;;;;;5.10;2.53;;;;;;;;;;4946065;28;20114;-81
2023/04/15 03:36:36;;;;;;;4.47;2.90;;;;;;;;;;4946587;28;20031;-80
2023/04/15 03:39:02;;;;;;;4.88;2.30;;;;;;;;;;4945863;28;20475;-82
2023/04/15 03:41:28;;;;;;;10.73;2.42;;;;;;;;;;4930017;29;20031;-81
2023/04/15 03:43:53;;;;;;;4.95;2.33;;;;;;;;;;4946207;28;20376;-80
2023/04/15 03:46:19;;;;;;;5.63;2.83;;;;;;;;;;4944864;28;20415;-81
2023/04/15 03:48:44;;;;;;;3.42;2.55;;;;;;;;;;4926533;28;20031;-81
2023/04/15 03:51:10;;;;;;;4.55;2.30;;;;;;;;;;4945790;28;20066;-81
2023/04/15 03:53:35;;;;;;;4.32;2.22;;;;;;;;;;4945562;28;20027;-81
2023/04/15 03:56:01;;;;;;;3.05;2.15;;;;;;;;;;4942975;28;20093;-81
2023/04/15 03:58:26;;;;;;;3.05;2.40;;;;;;;;;;4946037;28;20042;-81
2023/04/15 04:00:52;;;;;;;12.43;2.83;;;;;;;;;;4946703;28;20023;-80
2023/04/15 04:03:17;;;;;;;4.88;2.60;;;;;;;;;;4925181;29;20039;-80
2023/04/15 04:05:43;;;;;;;6.63;2.63;;;;;;;;;;4943785;28;20067;-80
2023/04/15 04:08:08;;;;;;;6.70;2.47;;;;;;;;;;4926920;28;20119;-80
2023/04/15 04:10:34;;;;;;;2.20;2.00;;;;;;;;;;4944557;28;20046;-80
2023/04/15 04:13:00;;;;;;;7.82;2.72;;;;;;;;;;4943868;28;20031;-79
2023/04/15 04:15:25;;;;;;;2.28;2.05;;;;;;;;;;4926687;28;20032;-79
2023/04/15 04:17:51;;;;;;;4.07;2.70;;;;;;;;;;4943329;28;20522;-80
2023/04/15 04:20:16;;;;;;;4.53;2.08;;;;;;;;;;4945245;28;20113;-80
2023/04/15 04:22:42;;;;;;;8.00;2.40;;;;;;;;;;4944819;28;20035;-79
2023/04/15 04:25:08;;;;;;;3.50;2.67;;;;;;;;;;4911025;29;20040;-79
2023/04/15 04:27:34;;;;;;;6.25;3.10;;;;;;;;;;4939933;28;20054;-80
2023/04/15 04:30:00;;;;;;;5.53;2.50;;;;;;;;;;4924265;29;20171;-79
2023/04/15 04:32:26;;;;;;;6.50;2.53;;;;;;;;;;4943487;28;20158;-79
2023/04/15 04:34:51;;;;;;;2.60;1.88;;;;;;;;;;4943770;28;20031;-79
2023/04/15 04:37:16;;;;;;;4.50;2.85;;;;;;;;;;4941844;28;20038;-81
2023/04/15 04:39:42;;;;;;;4.55;2.60;;;;;;;;;;4944838;28;20028;-82
2023/04/15 04:42:08;;;;;;;2.33;1.95;;;;;;;;;;4945253;28;20050;-82
2023/04/15 04:44:33;;;;;;;4.72;2.20;;;;;;;;;;4943017;28;20039;-80
2023/04/15 04:46:59;;;;;;;3.25;2.45;;;;;;;;;;4942590;28;20039;-80
2023/04/15 04:49:24;;;;;;;4.75;2.42;;;;;;;;;;4944421;28;20039;-80
2023/04/15 04:51:50;;;;;;;3.30;1.90;;;;;;;;;;4944525;28;21031;-81
2023/04/15 04:54:15;;;;;;;2.60;2.00;;;;;;;;;;4944062;28;20122;-79
2023/04/15 04:56:41;;;;;;;7.22;2.55;;;;;;;;;;4926436;28;20491;-79
2023/04/15 04:59:06;;;;;;;2.75;2.40;;;;;;;;;;4944498;28;20047;-81
2023/04/15 05:01:32;;;;;;;2.28;2.05;;;;;;;;;;4943836;28;20027;-80
2023/04/15 05:03:58;;;;;;;6.97;2.83;;;;;;;;;;4927756;28;20402;-81
2023/04/15 05:06:23;;;;;;;4.03;2.78;;;;;;;;;;4930739;29;20042;-80
2023/04/15 05:08:48;;;;;;;5.32;2.47;;;;;;;;;;4947277;28;20028;-81
2023/04/15 05:11:14;;;;;;;10.70;3.13;;;;;;;;;;4948602;28;20114;-80
2023/04/15 05:13:39;;;;;;;5.03;2.50;;;;;;;;;;4947738;28;20082;-80
2023/04/15 05:16:05;;;;;;;2.50;2.20;;;;;;;;;;4946310;28;20034;-80
2023/04/15 05:18:30;;;;;;;5.75;2.60;;;;;;;;;;4947661;28;20027;-79
2023/04/15 05:20:56;;;;;;;5.72;2.53;;;;;;;;;;4949718;28;20471;-80
2023/04/15 05:23:21;;;;;;;4.45;2.72;;;;;;;;;;4949324;28;20040;-80
2023/04/15 05:25:47;;;;;;;5.95;3.05;;;;;;;;;;4948847;28;20035;-79
2023/04/15 05:28:12;;;;;;;3.50;2.65;;;;;;;;;;4948591;28;20045;-80
2023/04/15 05:30:38;;;;;;;5.13;3.22;;;;;;;;;;4950343;28;20031;-80
2023/04/15 05:33:04;;;;;;;5.20;3.10;;;;;;;;;;4928114;29;20087;-81
2023/04/15 05:35:29;;;;;;;6.63;3.28;;;;;;;;;;4948483;28;20045;-80
2023/04/15 05:37:54;;;;;;;7.05;3.40;;;;;;;;;;4946981;28;20038;-80
2023/04/15 05:40:20;;;;;;;8.05;3.80;;;;;;;;;;4946687;28;20027;-82
2023/04/15 05:42:45;;;;;;;8.88;3.45;;;;;;;;;;4946816;28;20054;-81
2023/04/15 05:45:10;;;;;;;11.32;3.67;;;;;;;;;;4947167;28;20036;-81
2023/04/15 05:47:36;;;;;;;7.15;3.47;;;;;;;;;;4946215;28;20085;-81
2023/04/15 05:50:02;;;;;;;5.85;2.97;;;;;;;;;;4947767;28;20123;-81
2023/04/15 05:52:28;;;;;;;6.63;3.75;;;;;;;;;;4948092;28;20099;-79
2023/04/15 05:54:53;;;;;;;6.63;3.47;;;;;;;;;;4967635;28;21306;-79
2023/04/15 05:57:19;;;;;;;5.88;3.97;;;;;;;;;;4965289;28;20123;-79
2023/04/15 05:59:44;;;;;;;11.98;3.30;;;;;;;;;;4965442;28;20040;-82
2023/04/15 06:02:09;;;;;;;9.27;3.90;;;;;;;;;;4949424;28;20049;-82
2023/04/15 06:04:35;;;;;;;4.97;3.65;;;;;;;;;;4948221;28;20058;-82
2023/04/15 06:07:01;;;;;;;7.70;3.72;;;;;;;;;;4930190;28;20047;-81
2023/04/15 06:09:27;;;;;;;7.50;3.78;;;;;;;;;;4947857;28;20417;-81
2023/04/15 06:11:53;;;;;;;7.50;4.30;;;;;;;;;;4948060;28;20039;-81
2023/04/15 06:14:18;;;;;;;9.02;3.40;;;;;;;;;;4948042;28;20042;-82
2023/04/15 06:16:44;;;;;;;8.85;3.78;;;;;;;;;;4944883;28;20268;-79
2023/04/15 06:19:09;;;;;;;10.88;3.60;;;;;;;;;;4947583;28;20031;-81
2023/04/15 06:21:35;;;;;;;14.43;3.80;;;;;;;;;;4948847;28;20700;-82
2023/04/15 06:24:01;;;;;;;7.47;3.00;;;;;;;;;;4946859;28;20051;-81
2023/04/15 06:26:27;;;;;;;9.10;3.60;;;;;;;;;;4947703;28;20046;-82
2023/04/15 06:28:52;;;;;;;7.68;3.22;;;;;;;;;;4925999;28;20062;-82
2023/04/15 06:31:17;;;;;;;10.57;4.10;;;;;;;;;;4947455;28;20027;-82
2023/04/15 06:33:43;;;;;;;8.07;3.60;;;;;;;;;;4946682;28;20040;-82
2023/04/15 06:36:08;;;;;;;7.40;3.50;;;;;;;;;;4946057;28;20035;-82
2023/04/15 06:38:34;;;;;;;6.15;3.17;;;;;;;;;;4946702;28;20035;-82
2023/04/15 06:40:59;;;;;;;5.20;2.90;;;;;;;;;;4945248;28;20031;-82
2023/04/15 06:43:25;;;;;;;10.80;3.75;;;;;;;;;;4947007;28;20414;-81
2023/04/15 06:45:50;;;;;;;5.38;3.38;;;;;;;;;;4948068;28;20193;-82
2023/04/15 06:48:16;;;;;;;5.90;3.47;;;;;;;;;;4945559;28;20661;-82
2023/04/15 06:50:41;;;;;;;6.03;3.53;;;;;;;;;;4946209;28;20035;-82
2023/04/15 06:53:07;;;;;;;8.05;3.78;;;;;;;;;;4946258;28;20028;-83
2023/04/15 06:55:33;;;;;;;5.15;3.30;;;;;;;;;;4924704;29;20031;-81
2023/04/15 06:57:58;;;;;;;7.28;3.63;;;;;;;;;;4946446;28;20028;-81
2023/04/15 07:00:24;;;;;;;7.22;3.20;;;;;;;;;;4947994;28;20043;-81
2023/04/15 07:02:50;;;;;;;5.75;3.20;;;;;;;;;;4930525;29;20092;-81
2023/04/15 07:05:15;;;;;;;9.68;3.95;;;;;;;;;;4946426;28;20038;-82
2023/04/15 07:07:41;;;;;;;9.38;3.30;;;;;;;;;;4928428;28;20042;-81
2023/04/15 07:10:07;;;;;;;6.82;3.42;;;;;;;;;;4949564;28;20031;-80
2023/04/15 07:12:34;;;;;;;5.22;3.25;;;;;;;;;;4950347;28;20110;-81
2023/04/15 07:14:59;;;;;;;7.50;3.75;;;;;;;;;;4950463;28;21055;-82
2023/04/15 07:17:24;;;;;;;9.73;3.10;;;;;;;;;;4951202;28;20447;-82
2023/04/15 07:19:50;;;;;;;5.57;3.28;;;;;;;;;;4952687;28;20023;-82
2023/04/15 07:22:15;;;;;;;10.13;3.83;;;;;;;;;;4932931;29;20039;-81
2023/04/15 07:24:41;;;;;;;9.63;3.33;;;;;;;;;;4950095;28;20050;-82
2023/04/15 07:27:07;;;;;;;6.95;3.25;;;;;;;;;;4949725;28;20023;-82
2023/04/15 07:30:29;;;;;;;5.68;3.28;;;;;;;;;;4951569;28;20038;-83
2023/04/15 07:32:54;;;;;;;6.90;3.25;;;;;;;;;;4951506;28;20040;-82
2023/04/15 07:35:20;;;;;;;6.70;3.30;;;;;;;;;;4949809;28;20772;-79
2023/04/15 07:37:47;;;;;;;4.38;2.90;;;;;;;;;;4949196;28;20067;-78
2023/04/15 07:40:13;;;;;;;5.57;3.28;;;;;;;;;;4950150;28;20036;-80
2023/04/15 07:42:39;;;;;;;5.63;3.13;;;;;;;;;;4924413;28;20050;-81
2023/04/15 07:45:05;;;;;;;6.53;3.70;;;;;;;;;;4948427;28;20027;-80
2023/04/15 07:47:31;;;;;;;7.57;3.45;;;;;;;;;;4945466;28;20035;-82
2023/04/15 07:49:56;;;;;;;5.85;3.25;;;;;;;;;;4948499;28;20090;-82
2023/04/15 07:52:22;;;;;;;3.53;2.35;;;;;;;;;;4944647;28;20031;-81
2023/04/15 07:54:47;;;;;;;3.80;2.40;;;;;;;;;;4945627;28;20046;-83
2023/04/15 07:57:12;;;;;;;5.05;2.58;;;;;;;;;;4945520;28;20023;-82
2023/04/15 07:59:38;;;;;;;4.78;2.08;;;;;;;;;;4927998;28;20070;-82
2023/04/15 08:02:03;;;;;;;4.82;1.58;;;;;;;;;;4945734;28;20570;-81
2023/04/15 08:04:28;;;;;;;2.60;1.70;;;;;;;;;;4944139;28;20031;-82
2023/04/15 08:06:54;;;;;;;4.93;1.80;;;;;;;;;;4946220;28;20363;-82
2023/04/15 08:09:20;;;;;;;6.25;1.75;;;;;;;;;;4946416;28;20031;-82
2023/04/15 08:11:48;;;;;;;4.78;1.80;;;;;;;;;;4927426;28;20039;-82
2023/04/15 08:14:13;;;;;;;3.97;1.80;;;;;;;;;;4949343;28;20407;-81
2023/04/15 08:16:38;;;;;;;7.43;2.58;;;;;;;;;;4943478;28;20046;-82
2023/04/15 08:19:04;;;;;;;5.43;2.03;;;;;;;;;;4935186;28;20070;-81
2023/04/15 08:21:29;;;;;;;3.53;1.83;;;;;;;;;;4940172;29;20015;-81
2023/04/15 08:23:55;;;;;;;6.63;1.60;;;;;;;;;;4971964;28;20066;-80
2023/04/15 08:26:21;;;;;;;8.07;1.80;;;;;;;;;;4949968;28;20019;-83
2023/04/15 08:28:46;;;;;;;3.10;1.80;;;;;;;;;;4962351;28;20102;-82
2023/04/15 08:31:13;;;;;;;2.70;1.65;;;;;;;;;;4942465;28;20090;-82
2023/04/15 08:33:39;;;;;;;5.93;2.03;;;;;;;;;;4952329;28;20039;-82
2023/04/15 08:36:05;;;;;;;2.97;1.75;;;;;;;;;;4974545;28;20011;-80
2023/04/15 08:38:30;;;;;;;3.95;1.88;;;;;;;;;;4980766;28;20039;-81
2023/04/15 08:40:58;;;;;;;3.60;1.80;;;;;;;;;;4968191;28;20034;-84
2023/04/15 08:43:29;;;;;;;2.67;1.83;;;;;;;;;;4969493;28;20024;-82
2023/04/15 08:45:54;;;;;;;4.55;2.03;;;;;;;;;;4964448;28;20126;-82
2023/04/15 08:48:21;;;;;;;4.82;2.17;;;;;;;;;;4959549;28;20050;-81
2023/04/15 08:50:47;;;;;;;9.65;2.45;;;;;;;;;;4940601;28;20035;-82
2023/04/15 08:53:13;;;;;;;3.13;2.67;;;;;;;;;;4952106;28;20038;-83
2023/04/15 08:55:46;;;;;;;3.15;1.88;;;;;;;;;;4959900;28;20056;-84
2023/04/15 08:58:12;;;;;;;5.45;2.40;;;;;;;;;;4936099;29;20024;-82
2023/04/15 09:00:38;;;;;;;7.65;2.10;;;;;;;;;;4945515;28;20027;-80
2023/04/15 09:03:05;;;;;;;7.20;2.00;;;;;;;;;;4961630;28;20031;-82
2023/04/15 09:05:37;;;;;;;4.60;2.33;;;;;;;;;;4960288;28;20091;-83
2023/04/15 09:08:04;;;;;;;3.78;2.10;;;;;;;;;;4961259;28;20033;-81
2023/04/15 09:10:30;;;;;;;6.15;2.47;;;;;;;;;;4958584;28;20055;-82
2023/04/15 09:12:56;;;;;;;5.03;2.38;;;;;;;;;;4963310;28;20031;-84
2023/04/15 09:15:24;;;;;;;3.95;2.05;;;;;;;;;;4958186;28;20542;-82
2023/04/15 09:17:49;;;;;;;2.67;1.80;;;;;;;;;;4953795;28;20040;-82
2023/04/15 09:20:17;;;;;;;4.20;1.80;;;;;;;;;;4962666;28;20034;-81
2023/04/15 09:22:46;;;;;;;3.65;2.15;;;;;;;;;;4972144;28;20038;-82
2023/04/15 09:25:14;;;;;;;4.25;2.05;;;;;;;;;;4968481;28;20101;-82
2023/04/15 09:27:55;;;;;;;1.92;1.73;;;;;;;;;;4959923;28;20038;-82
2023/04/15 09:30:20;;;;;;;4.25;1.95;;;;;;;;;;4954698;28;20029;-82
2023/04/15 09:32:53;;;;;;;8.80;2.08;;;;;;;;;;4960070;28;20027;-83
2023/04/15 09:35:20;;;;;;;4.10;1.95;;;;;;;;;;4967896;28;20371;-83
2023/04/15 09:37:45;;;;;;;5.10;1.88;;;;;;;;;;4968096;28;20054;-82
2023/04/15 09:40:11;;;;;;;3.83;2.00;;;;;;;;;;4959545;28;20023;-81
2023/04/15 09:42:53;;;;;;;4.18;1.55;;;;;;;;;;4948144;28;20037;-82
2023/04/15 09:45:19;;;;;;;2.65;1.90;;;;;;;;;;4952665;28;20479;-82
2023/04/15 09:47:45;;;;;;;2.33;1.80;;;;;;;;;;4964693;28;20041;-81
2023/04/15 09:50:10;;;;;;;6.63;2.10;;;;;;;;;;4944436;29;20476;-82
2023/04/15 09:52:42;;;;;;;4.38;1.98;;;;;;;;;;4962887;28;20110;-81
2023/04/15 09:55:07;;;;;;;3.35;1.60;;;;;;;;;;4962196;28;20497;-81
2023/04/15 09:57:35;;;;;;;2.08;1.88;;;;;;;;;;4965905;28;20103;-80
2023/04/15 10:00:00;;;;;;;2.60;2.00;;;;;;;;;;4963797;28;20022;-80
2023/04/15 10:02:26;;;;;;;3.08;2.03;;;;;;;;;;4967421;28;20034;-80
2023/04/15 10:04:52;;;;;;;5.47;2.20;;;;;;;;;;4971663;28;20099;-81
2023/04/15 10:07:21;;;;;;;7.35;2.65;;;;;;;;;;4957977;28;20384;-81
2023/04/15 10:09:48;;;;;;;3.55;2.25;;;;;;;;;;4941106;28;20031;-80
2023/04/15 10:12:16;;;;;;;3.75;2.55;;;;;;;;;;4967737;28;20019;-82
2023/04/15 10:14:43;;;;;;;6.00;2.53;;;;;;;;;;4953265;28;20034;-84
2023/04/15 10:17:11;;;;;;;5.15;2.28;;;;;;;;;;4954309;28;20031;-81
2023/04/15 10:19:37;;;;;;;6.85;2.83;;;;;;;;;;4954921;28;20039;-83
2023/04/15 10:22:03;;;;;;;5.53;2.20;;;;;;;;;;4947482;28;20083;-83
2023/04/15 10:24:32;;;;;;;2.58;1.85;;;;;;;;;;4963989;28;20061;-83
2023/04/15 10:26:59;;;;;;;2.38;1.70;;;;;;;;;;4960007;28;20133;-84
2023/04/15 10:29:27;;;;;;;5.10;1.63;;;;;;;;;;4957325;28;20019;-83
2023/04/15 10:31:56;;;;;;;6.68;2.13;;;;;;;;;;4968057;28;20027;-83
2023/04/15 10:34:23;;;;;;;6.07;2.17;;;;;;;;;;4960210;28;20106;-81
2023/04/15 10:36:49;;;;;;;3.38;1.80;;;;;;;;;;4952456;28;20046;-82
2023/04/15 10:39:33;;;;;;;4.63;1.90;;;;;;;;;;4949488;28;20016;-83
2023/04/15 10:42:08;;;;;;;7.22;2.25;;;;;;;;;;4925949;28;20039;-82
2023/04/15 10:44:38;;;;;;;4.07;2.22;;;;;;;;;;4949269;28;20038;-80
2023/04/15 10:47:12;;;;;;;3.30;1.90;;;;;;;;;;4946833;28;20035;-82
2023/04/15 10:49:49;;;;;;;3.42;2.25;;;;;;;;;;4950228;28;20050;-82
2023/04/15 10:52:16;;;;;;;4.22;2.17;;;;;;;;;;4948551;28;20048;-82
2023/04/15 10:54:42;;;;;;;5.22;2.45;;;;;;;;;;4939170;29;20046;-81
2023/04/15 10:57:13;;;;;;;4.20;2.45;;;;;;;;;;4931572;28;20037;-80
2023/04/15 10:59:59;;;;;;;4.72;2.63;;;;;;;;;;4948090;28;20114;-80
2023/04/15 11:02:50;;;;;;;4.53;2.30;;;;;;;;;;4932728;29;20134;-80
2023/04/15 11:05:17;;;;;;;3.13;1.85;;;;;;;;;;4931787;29;20123;-81
2023/04/15 11:07:45;;;;;;;4.72;1.90;;;;;;;;;;4948764;28;20124;-81
2023/04/15 11:10:17;;;;;;;2.30;1.67;;;;;;;;;;4935286;29;20038;-82
2023/04/15 11:12:43;;;;;;;2.22;1.50;;;;;;;;;;4941280;28;20034;-84
2023/04/15 11:15:38;;;;;;;2.75;1.70;;;;;;;;;;4968364;28;20053;-83
2023/04/15 11:18:11;;;;;;;2.58;1.95;;;;;;;;;;4929177;28;20326;-83
2023/04/15 11:20:38;;;;;;;4.25;1.90;;;;;;;;;;4956760;28;20315;-81
2023/04/15 11:23:04;;;;;;;2.85;2.00;;;;;;;;;;4962090;28;20104;-82
2023/04/15 11:25:32;;;;;;;4.10;1.90;;;;;;;;;;4964951;28;20056;-81
2023/04/15 11:27:59;;;;;;;2.85;1.63;;;;;;;;;;4974628;28;20039;-83
2023/04/15 11:30:26;;;;;;;6.30;2.08;;;;;;;;;;4972371;28;20031;-82
2023/04/15 11:32:54;;;;;;;7.00;2.25;;;;;;;;;;4965423;28;20042;-83
2023/04/15 11:35:20;;;;;;;2.72;1.95;;;;;;;;;;4965396;28;20030;-83
2023/04/15 11:37:48;;;;;;;5.35;2.72;;;;;;;;;;4937389;28;20579;-82
2023/04/15 11:40:16;;;;;;;4.20;2.30;;;;;;;;;;4965223;28;20027;-83
2023/04/15 11:42:42;;;;;;;4.35;2.95;;;;;;;;;;4959048;28;20036;-84
2023/04/15 11:45:11;;;;;;;5.00;2.40;;;;;;;;;;4931289;29;20115;-81
2023/04/15 11:47:37;;;;;;;5.95;2.33;;;;;;;;;;4944153;28;20123;-83
2023/04/15 11:50:20;;;;;;;4.38;2.75;;;;;;;;;;4946148;28;20027;-81
2023/04/15 11:52:52;;;;;;;4.22;2.67;;;;;;;;;;4946408;28;20131;-81
2023/04/15 11:55:17;;;;;;;5.25;2.20;;;;;;;;;;4947059;28;20055;-82
2023/04/15 11:57:43;;;;;;;5.85;2.20;;;;;;;;;;4951695;28;20558;-86
2023/04/15 12:00:09;;;;;;;2.45;2.00;;;;;;;;;;4953366;28;20019;-83
2023/04/15 12:02:36;;;;;;;5.15;2.28;;;;;;;;;;4933459;29;20041;-82
2023/04/15 12:05:05;;;;;;;7.50;2.22;;;;;;;;;;4951804;28;20078;-83
2023/04/15 12:07:31;;;;;;;2.85;1.85;;;;;;;;;;4950285;28;20087;-82
2023/04/15 12:09:57;;;;;;;3.88;1.92;;;;;;;;;;4950837;28;20024;-82
2023/04/15 12:12:27;;;;;;;5.18;2.28;;;;;;;;;;4948618;28;20447;-83
2023/04/15 12:14:55;;;;;;;4.57;2.20;;;;;;;;;;4950411;28;20041;-80
2023/04/15 12:17:22;;;;;;;3.25;1.50;;;;;;;;;;4949079;28;20035;-82
2023/04/15 12:19:48;;;;;;;1.35;0.95;;;;;;;;;;4948167;28;20042;-81
2023/04/15 12:22:15;;;;;;;2.45;1.48;;;;;;;;;;4951957;28;20032;-82
2023/04/15 12:24:45;;;;;;;4.10;1.98;;;;;;;;;;4952845;28;20067;-83
2023/04/15 12:27:12;;;;;;;2.17;1.98;;;;;;;;;;4950505;28;20032;-85
2023/04/15 12:29:42;;;;;;;1.83;1.67;;;;;;;;;;4952214;28;20023;-84
2023/04/15 12:32:12;;;;;;;2.08;1.95;;;;;;;;;;4956707;29;20034;-86
2023/04/15 12:34:40;;;;;;;3.40;2.42;;;;;;;;;;4956253;29;20063;-85
2023/04/15 12:37:10;;;;;;;5.57;3.00;;;;;;;;;;4935202;28;20126;-85
2023/04/15 12:39:38;;;;;;;5.38;2.55;;;;;;;;;;4931955;29;20027;-84
2023/04/15 12:42:05;;;;;;;4.13;2.03;;;;;;;;;;4925287;29;20031;-85
2023/04/15 12:44:31;;;;;;;3.65;2.13;;;;;;;;;;4934419;29;20023;-85
2023/04/15 12:46:58;;;;;;;6.47;2.50;;;;;;;;;;4947327;28;20059;-85
2023/04/15 12:49:24;;;;;;;5.18;2.33;;;;;;;;;;4952348;28;20030;-84
2023/04/15 12:51:54;;;;;;;2.97;2.00;;;;;;;;;;4936455;29;20095;-83
2023/04/15 12:54:20;;;;;;;2.33;1.95;;;;;;;;;;4963692;28;20023;-85
2023/04/15 12:56:47;;;;;;;4.05;1.77;;;;;;;;;;4957764;28;20086;-85
2023/04/15 12:59:14;;;;;;;2.80;1.95;;;;;;;;;;4955660;28;20055;-84
2023/04/15 13:01:40;;;;;;;1.70;1.50;;;;;;;;;;4935763;29;20039;-84
2023/04/15 13:04:06;;;;;;;4.38;1.60;;;;;;;;;;4954705;29;20094;-83
2023/04/15 13:06:34;;;;;;;1.83;1.50;;;;;;;;;;4937958;29;20023;-83
2023/04/15 13:09:00;;;;;;;2.13;1.70;;;;;;;;;;4955058;28;20506;-84
2023/04/15 13:11:28;;;;;;;2.03;1.67;;;;;;;;;;4944143;29;20065;-83
2023/04/15 13:13:54;;;;;;;1.92;1.30;;;;;;;;;;4948713;28;20055;-82
2023/04/15 13:16:20;;;;;;;2.58;1.40;;;;;;;;;;4921400;29;20493;-83
2023/04/15 13:18:47;;;;;;;2.28;1.45;;;;;;;;;;4945310;28;20114;-83
2023/04/15 13:21:12;;;;;;;2.30;1.67;;;;;;;;;;4948697;28;20086;-82
2023/04/15 13:23:37;;;;;;;1.55;1.38;;;;;;;;;;4971655;28;20018;-83
2023/04/15 13:26:03;;;;;;;2.70;1.30;;;;;;;;;;4965955;28;20027;-82
2023/04/15 13:28:28;;;;;;;1.55;1.10;;;;;;;;;;4958822;28;20027;-83
2023/04/15 13:30:54;;;;;;;4.13;1.50;;;;;;;;;;4967252;28;20083;-83
2023/04/15 13:33:19;;;;;;;2.05;1.40;;;;;;;;;;4965555;28;20139;-82
2023/04/15 13:35:45;;;;;;;1.80;1.10;;;;;;;;;;4951240;28;20034;-82
2023/04/15 13:38:10;;;;;;;3.47;1.10;;;;;;;;;;4964872;28;20030;-82
2023/04/15 13:40:35;;;;;;;1.40;0.95;;;;;;;;;;4949753;28;20399;-82
2023/04/15 13:43:02;;;;;;;2.15;0.98;;;;;;;;;;4972252;28;20039;-81
2023/04/15 13:45:27;;;;;;;0.98;0.90;;;;;;;;;;4969832;28;20019;-82
2023/04/15 13:47:54;;;;;;;5.15;1.27;;;;;;;;;;4966543;28;20031;-82
2023/04/15 13:50:20;;;;;;;0.90;0.90;;;;;;;;;;4955384;29;20019;-82
2023/04/15 13:52:46;;;;;;;0.63;0.63;;;;;;;;;;4966989;28;20038;-82
2023/04/15 13:55:11;;;;;;;2.25;1.00;;;;;;;;;;4954325;28;20023;-81
2023/04/15 13:57:36;;;;;;;3.10;1.20;;;;;;;;;;4958648;28;20488;-82
2023/04/15 14:00:03;;;;;;;0.93;0.90;;;;;;;;;;4946762;28;20015;-82
2023/04/15 14:02:29;;;;;;;1.25;0.93;;;;;;;;;;4973112;28;20027;-82
2023/04/15 14:04:54;;;;;;;3.55;1.45;;;;;;;;;;4970471;28;20483;-81
2023/04/15 14:07:20;;;;;;;0.93;0.90;;;;;;;;;;4958755;28;20074;-82
2023/04/15 14:09:47;;;;;;;3.72;1.02;;;;;;;;;;4956072;28;20046;-82
2023/04/15 14:12:12;;;;;;;3.08;1.08;;;;;;;;;;4949330;28;20927;-81
2023/04/15 14:14:37;;;;;;;0.60;0.60;;;;;;;;;;4949023;28;20042;-82
2023/04/15 14:17:25;;;;;;;0.60;0.60;;;;;;;;;;4947383;28;20039;-81
2023/04/15 14:19:50;;;;;;;0.77;0.77;;;;;;;;;;4969775;28;20058;-81
2023/04/15 14:22:17;;;;;;;2.35;0.93;;;;;;;;;;4961116;28;20039;-81
2023/04/15 14:30:10;;;;;;;5.13;1.10;;;;;;;;;;5272969;23;20713;-82
2023/04/15 14:32:36;;;;;;;0.43;0.43;;;;;;;;;;4994479;28;20037;-81
2023/04/15 14:35:03;;;;;;;3.50;0.80;;;;;;;;;;4999594;28;20393;-83
2023/04/15 14:37:28;;;;;;;0.80;0.80;;;;;;;;;;4997097;28;20022;-82
2023/04/15 14:39:53;;;;;;;1.23;1.00;;;;;;;;;;4997135;28;20034;-82
2023/04/15 14:42:19;;;;;;;1.38;0.75;;;;;;;;;;4988924;28;20034;-80
2023/04/15 14:44:44;;;;;;;0.50;0.50;;;;;;;;;;4996755;28;20136;-81
2023/04/15 14:47:10;;;;;;;7.13;1.60;;;;;;;;;;4984876;28;20117;-80
2023/04/15 14:49:35;;;;;;;1.48;1.33;;;;;;;;;;4984752;28;20030;-81
2023/04/15 14:52:04;;;;;;;0.88;0.88;;;;;;;;;;4985938;28;20034;-81